Time;durP1;ratioP1;P1;durP2;ratioP2;P2;SDS_P1;SDS_P2;PMS_P1;PMS_P2;Temp;Humidity;BMP_temperature;BMP_pressure;BME280_temperature;BME280_humidity;BME280_pressure;Samples;Min_cycle;Max_cycle;Signal;HPM_P1;HPM_P2
2022/11/30 00:01:55;;;;;;;7.88;2.67;;;;;;;;;;4963479;28;20127;-65
2022/11/30 00:04:20;;;;;;;9.57;3.00;;;;;;;;;;4981222;28;20064;-65
2022/11/30 00:06:46;;;;;;;10.00;2.95;;;;;;;;;;4977531;28;20038;-65
2022/11/30 00:09:12;;;;;;;11.80;3.42;;;;;;;;;;4981021;28;20144;-65
2022/11/30 00:11:37;;;;;;;7.38;3.28;;;;;;;;;;4982104;28;20709;-65
2022/11/30 00:14:02;;;;;;;8.05;3.28;;;;;;;;;;4983859;28;20072;-65
2022/11/30 00:16:28;;;;;;;10.60;4.47;;;;;;;;;;4980149;28;20049;-65
2022/11/30 00:18:53;;;;;;;12.88;5.10;;;;;;;;;;4980061;28;20053;-66
2022/11/30 00:21:19;;;;;;;12.85;4.90;;;;;;;;;;4982157;28;20049;-65
2022/11/30 00:23:45;;;;;;;13.73;5.07;;;;;;;;;;4982785;28;22416;-65
2022/11/30 00:26:14;;;;;;;9.73;5.30;;;;;;;;;;4981530;28;20123;-65
2022/11/30 00:28:39;;;;;;;14.38;6.00;;;;;;;;;;4981188;28;20127;-65
2022/11/30 00:31:06;;;;;;;12.55;6.20;;;;;;;;;;4983356;28;20041;-65
2022/11/30 00:33:32;;;;;;;14.98;6.32;;;;;;;;;;4982143;28;20876;-65
2022/11/30 00:35:59;;;;;;;13.07;6.32;;;;;;;;;;4981284;28;20597;-65
2022/11/30 00:38:25;;;;;;;11.38;5.80;;;;;;;;;;4982580;28;20096;-65
2022/11/30 00:40:50;;;;;;;11.52;5.78;;;;;;;;;;4967227;28;20063;-65
2022/11/30 00:43:16;;;;;;;12.98;6.05;;;;;;;;;;4980868;28;20033;-64
2022/11/30 00:45:41;;;;;;;14.60;7.28;;;;;;;;;;4982327;28;20033;-65
2022/11/30 00:48:06;;;;;;;14.60;8.00;;;;;;;;;;4980099;28;20042;-66
2022/11/30 00:50:32;;;;;;;14.95;8.02;;;;;;;;;;4984928;28;20034;-65
2022/11/30 00:52:57;;;;;;;20.88;9.57;;;;;;;;;;4981080;28;20042;-65
2022/11/30 00:55:22;;;;;;;19.75;9.20;;;;;;;;;;4982397;28;20038;-64
2022/11/30 00:57:48;;;;;;;17.42;9.07;;;;;;;;;;4982557;28;20042;-64
2022/11/30 01:00:13;;;;;;;13.75;8.65;;;;;;;;;;4982186;28;20044;-65
2022/11/30 01:02:41;;;;;;;15.45;7.97;;;;;;;;;;4987278;28;20046;-64
2022/11/30 01:05:07;;;;;;;18.30;8.13;;;;;;;;;;5006340;28;20037;-65
2022/11/30 01:07:32;;;;;;;15.55;8.52;;;;;;;;;;5010057;28;20142;-64
2022/11/30 01:09:57;;;;;;;21.05;9.00;;;;;;;;;;5007721;28;20247;-64
2022/11/30 01:12:26;;;;;;;17.02;9.48;;;;;;;;;;5010207;28;20464;-64
2022/11/30 01:14:51;;;;;;;16.38;8.60;;;;;;;;;;5038463;28;20036;-65
2022/11/30 01:17:16;;;;;;;18.40;9.52;;;;;;;;;;5003903;28;20645;-65
2022/11/30 01:19:44;;;;;;;17.90;9.75;;;;;;;;;;4988155;28;20150;-64
2022/11/30 01:22:12;;;;;;;19.30;10.45;;;;;;;;;;4989937;28;20046;-65
2022/11/30 01:24:37;;;;;;;16.40;10.57;;;;;;;;;;5018129;28;20047;-65
2022/11/30 01:27:03;;;;;;;18.45;11.02;;;;;;;;;;4989586;28;20025;-64
2022/11/30 01:29:28;;;;;;;20.08;11.15;;;;;;;;;;4987962;28;20050;-64
2022/11/30 01:31:53;;;;;;;20.48;11.25;;;;;;;;;;4985799;28;20045;-64
2022/11/30 01:34:19;;;;;;;19.73;12.20;;;;;;;;;;4984264;28;20123;-65
2022/11/30 01:36:47;;;;;;;21.60;12.30;;;;;;;;;;4987891;28;20034;-67
2022/11/30 01:39:12;;;;;;;21.50;12.85;;;;;;;;;;4987431;28;20034;-67
2022/11/30 01:41:38;;;;;;;21.23;13.68;;;;;;;;;;4987567;28;20048;-67
2022/11/30 01:44:08;;;;;;;21.40;13.45;;;;;;;;;;4986900;28;20034;-67
2022/11/30 01:47:11;;;;;;;18.33;12.30;;;;;;;;;;4987902;28;20050;-67
2022/11/30 01:49:38;;;;;;;21.77;14.68;;;;;;;;;;4985330;28;20122;-67
2022/11/30 01:52:06;;;;;;;19.13;13.27;;;;;;;;;;4982252;28;20037;-69
2022/11/30 01:54:36;;;;;;;22.63;13.48;;;;;;;;;;4987247;28;20159;-68
2022/11/30 01:57:04;;;;;;;23.60;14.70;;;;;;;;;;4990184;28;20034;-67
2022/11/30 01:59:29;;;;;;;23.20;13.50;;;;;;;;;;4987470;28;20140;-67
2022/11/30 02:01:55;;;;;;;23.08;14.85;;;;;;;;;;4989138;28;20175;-67
2022/11/30 02:04:27;;;;;;;23.17;14.13;;;;;;;;;;4987665;28;20061;-67
2022/11/30 02:06:57;;;;;;;21.58;14.52;;;;;;;;;;4988152;28;20052;-67
2022/11/30 02:09:22;;;;;;;26.02;14.55;;;;;;;;;;4986929;28;20034;-67
2022/11/30 02:11:48;;;;;;;24.33;13.63;;;;;;;;;;4985340;28;20048;-68
2022/11/30 02:14:49;;;;;;;23.05;13.55;;;;;;;;;;4985220;28;20056;-68
2022/11/30 02:17:33;;;;;;;23.98;13.80;;;;;;;;;;4963258;28;20061;-67
2022/11/30 02:20:13;;;;;;;22.70;13.90;;;;;;;;;;4982990;28;20038;-67
2022/11/30 02:22:53;;;;;;;25.95;14.45;;;;;;;;;;5003114;28;20033;-67
2022/11/30 02:25:19;;;;;;;35.20;17.30;;;;;;;;;;4999376;28;21087;-67
2022/11/30 02:28:02;;;;;;;28.38;16.17;;;;;;;;;;4985406;28;20128;-68
2022/11/30 02:30:34;;;;;;;24.77;15.05;;;;;;;;;;4983751;28;20200;-67
2022/11/30 02:33:03;;;;;;;25.85;14.95;;;;;;;;;;4980675;28;20067;-67
2022/11/30 02:35:31;;;;;;;30.33;16.30;;;;;;;;;;4983759;28;20036;-67
2022/11/30 02:37:59;;;;;;;32.00;16.70;;;;;;;;;;4983708;28;20585;-67
2022/11/30 02:40:24;;;;;;;28.05;16.38;;;;;;;;;;4984450;28;20487;-67
2022/11/30 02:42:50;;;;;;;37.13;19.27;;;;;;;;;;4982345;28;20033;-67
2022/11/30 02:45:20;;;;;;;30.27;17.92;;;;;;;;;;4984027;28;20079;-67
2022/11/30 02:48:01;;;;;;;44.63;23.92;;;;;;;;;;4984480;28;20037;-67
2022/11/30 02:50:38;;;;;;;49.75;25.20;;;;;;;;;;4984841;28;20044;-68
2022/11/30 02:53:04;;;;;;;46.35;26.95;;;;;;;;;;4983518;28;20746;-67
2022/11/30 02:55:30;;;;;;;48.30;27.20;;;;;;;;;;4984756;28;20038;-67
2022/11/30 02:57:56;;;;;;;50.75;27.70;;;;;;;;;;4987056;28;20057;-67
2022/11/30 03:00:23;;;;;;;50.67;27.05;;;;;;;;;;5004228;28;20041;-68
2022/11/30 03:02:49;;;;;;;52.88;27.35;;;;;;;;;;5000761;28;20123;-68
2022/11/30 03:05:14;;;;;;;51.50;27.85;;;;;;;;;;4990922;28;20047;-68
2022/11/30 03:07:41;;;;;;;52.25;27.70;;;;;;;;;;5002637;28;20040;-67
2022/11/30 03:10:07;;;;;;;50.13;27.40;;;;;;;;;;5004515;28;22359;-67
2022/11/30 03:12:35;;;;;;;52.38;28.88;;;;;;;;;;5006527;28;20037;-68
2022/11/30 03:15:00;;;;;;;52.40;27.48;;;;;;;;;;5002224;28;20071;-68
2022/11/30 03:17:26;;;;;;;47.25;27.33;;;;;;;;;;5005556;28;20068;-68
2022/11/30 03:19:52;;;;;;;46.83;27.35;;;;;;;;;;4998357;28;20166;-68
2022/11/30 03:22:17;;;;;;;47.30;26.73;;;;;;;;;;4982736;28;20047;-67
2022/11/30 03:24:42;;;;;;;48.85;27.60;;;;;;;;;;4980126;28;20573;-68
2022/11/30 03:27:11;;;;;;;49.05;26.30;;;;;;;;;;4986157;28;20072;-68
2022/11/30 03:29:36;;;;;;;50.03;27.90;;;;;;;;;;4984284;28;20035;-68
2022/11/30 03:32:02;;;;;;;47.88;27.70;;;;;;;;;;4984675;28;20124;-68
2022/11/30 03:34:27;;;;;;;50.13;27.30;;;;;;;;;;4984312;28;20037;-68
2022/11/30 03:36:56;;;;;;;50.35;28.38;;;;;;;;;;4981046;28;20033;-68
2022/11/30 03:39:22;;;;;;;46.75;26.75;;;;;;;;;;5014523;28;20086;-67
2022/11/30 03:41:47;;;;;;;50.60;28.33;;;;;;;;;;4970293;28;20045;-67
2022/11/30 03:44:15;;;;;;;52.90;28.65;;;;;;;;;;4982530;28;20037;-68
2022/11/30 03:46:40;;;;;;;52.72;29.30;;;;;;;;;;4989330;28;20038;-68
2022/11/30 03:49:08;;;;;;;49.30;28.90;;;;;;;;;;4982661;28;20048;-67
2022/11/30 03:51:34;;;;;;;46.00;26.63;;;;;;;;;;4982153;28;20112;-68
2022/11/30 03:53:59;;;;;;;51.40;28.60;;;;;;;;;;4980570;28;20155;-67
2022/11/30 03:56:25;;;;;;;51.83;29.77;;;;;;;;;;4982814;28;20040;-68
2022/11/30 03:58:50;;;;;;;49.42;29.30;;;;;;;;;;4981620;28;20060;-67
2022/11/30 04:01:20;;;;;;;50.45;29.15;;;;;;;;;;4980686;28;21656;-68
2022/11/30 04:03:48;;;;;;;52.88;30.13;;;;;;;;;;4983972;28;20034;-67
2022/11/30 04:06:14;;;;;;;50.38;28.55;;;;;;;;;;4981121;28;20042;-67
2022/11/30 04:08:40;;;;;;;49.70;28.80;;;;;;;;;;4981921;28;20396;-67
2022/11/30 04:11:05;;;;;;;51.33;28.15;;;;;;;;;;4980858;28;20038;-67
2022/11/30 04:13:32;;;;;;;46.17;27.35;;;;;;;;;;4981328;28;20581;-67
2022/11/30 04:15:57;;;;;;;46.75;29.25;;;;;;;;;;4981018;28;20041;-67
2022/11/30 04:18:23;;;;;;;48.67;29.10;;;;;;;;;;4981580;28;20045;-69
2022/11/30 04:20:49;;;;;;;48.63;29.17;;;;;;;;;;5011421;28;20295;-69
2022/11/30 04:23:14;;;;;;;47.67;28.50;;;;;;;;;;4981138;28;20046;-69
2022/11/30 04:25:40;;;;;;;50.03;28.33;;;;;;;;;;4979978;28;20041;-69
2022/11/30 04:28:06;;;;;;;49.30;29.35;;;;;;;;;;4978737;28;20084;-69
2022/11/30 04:30:33;;;;;;;50.70;28.55;;;;;;;;;;4976425;28;20538;-69
2022/11/30 04:33:03;;;;;;;50.20;29.95;;;;;;;;;;4981411;28;20099;-69
2022/11/30 04:35:28;;;;;;;53.00;30.30;;;;;;;;;;4977430;28;20088;-71
2022/11/30 04:37:53;;;;;;;52.97;30.55;;;;;;;;;;4978316;28;20541;-71
2022/11/30 04:40:19;;;;;;;52.85;32.15;;;;;;;;;;4985899;28;20046;-71
2022/11/30 04:42:44;;;;;;;54.45;32.47;;;;;;;;;;4978664;28;20049;-72
2022/11/30 04:45:09;;;;;;;55.38;33.33;;;;;;;;;;4981519;28;20588;-73
2022/11/30 04:47:35;;;;;;;57.65;32.40;;;;;;;;;;4980629;28;20041;-74
2022/11/30 04:50:00;;;;;;;56.10;32.15;;;;;;;;;;4966037;28;20080;-73
2022/11/30 04:52:25;;;;;;;54.88;31.73;;;;;;;;;;5010680;28;20046;-74
2022/11/30 04:54:53;;;;;;;52.70;31.40;;;;;;;;;;4977893;28;22445;-73
2022/11/30 04:57:18;;;;;;;55.75;31.23;;;;;;;;;;4982602;28;20033;-73
2022/11/30 04:59:44;;;;;;;55.45;31.95;;;;;;;;;;4982690;28;20049;-72
2022/11/30 05:02:09;;;;;;;56.03;32.65;;;;;;;;;;4980786;28;20061;-72
2022/11/30 05:04:40;;;;;;;54.58;32.75;;;;;;;;;;4982169;28;21070;-72
2022/11/30 05:07:05;;;;;;;58.65;32.17;;;;;;;;;;4981159;28;20045;-72
2022/11/30 05:09:31;;;;;;;60.28;33.90;;;;;;;;;;4980795;28;20147;-71
2022/11/30 05:11:56;;;;;;;60.72;34.17;;;;;;;;;;4982171;28;20117;-71
2022/11/30 05:14:21;;;;;;;55.72;32.25;;;;;;;;;;4982786;28;20042;-71
2022/11/30 05:16:47;;;;;;;65.43;33.05;;;;;;;;;;4979922;28;20160;-71
2022/11/30 05:19:13;;;;;;;60.30;33.30;;;;;;;;;;4981455;28;20037;-71
2022/11/30 05:21:39;;;;;;;60.30;34.00;;;;;;;;;;4980383;28;20773;-72
2022/11/30 05:24:04;;;;;;;58.92;33.40;;;;;;;;;;4981227;28;20043;-72
2022/11/30 05:26:31;;;;;;;59.08;33.53;;;;;;;;;;4964006;28;21178;-72
2022/11/30 05:28:57;;;;;;;58.75;33.17;;;;;;;;;;4982714;28;20128;-72
2022/11/30 05:31:22;;;;;;;59.13;33.50;;;;;;;;;;4980894;28;20179;-72
2022/11/30 05:33:51;;;;;;;61.03;33.45;;;;;;;;;;4964874;28;20172;-72
2022/11/30 05:36:16;;;;;;;60.92;33.72;;;;;;;;;;4981344;28;20038;-72
2022/11/30 05:38:41;;;;;;;61.47;32.83;;;;;;;;;;4981177;28;21819;-73
2022/11/30 05:41:09;;;;;;;68.00;34.15;;;;;;;;;;4982472;28;20953;-73
2022/11/30 05:43:36;;;;;;;59.65;32.85;;;;;;;;;;4979744;28;20033;-72
2022/11/30 05:46:03;;;;;;;63.40;34.25;;;;;;;;;;4981520;28;20048;-72
2022/11/30 05:48:28;;;;;;;68.60;34.10;;;;;;;;;;4984177;28;20277;-72
2022/11/30 05:50:53;;;;;;;64.20;35.75;;;;;;;;;;4980047;28;20137;-72
2022/11/30 05:53:19;;;;;;;68.70;34.35;;;;;;;;;;4984584;28;20119;-72
2022/11/30 05:55:44;;;;;;;60.63;34.97;;;;;;;;;;4984249;28;20034;-72
2022/11/30 05:58:10;;;;;;;64.22;34.28;;;;;;;;;;4988038;28;20051;-72
2022/11/30 06:00:37;;;;;;;70.93;34.95;;;;;;;;;;4986693;28;20422;-72
2022/11/30 06:03:03;;;;;;;66.57;35.90;;;;;;;;;;4983186;28;20033;-72
2022/11/30 06:05:28;;;;;;;66.22;34.88;;;;;;;;;;4999251;28;20047;-72
2022/11/30 06:07:53;;;;;;;73.30;36.15;;;;;;;;;;4985663;28;20151;-72
2022/11/30 06:10:19;;;;;;;68.38;34.30;;;;;;;;;;4982457;28;20068;-72
2022/11/30 06:12:44;;;;;;;58.50;31.65;;;;;;;;;;4983262;28;21996;-72
2022/11/30 06:15:12;;;;;;;58.72;30.45;;;;;;;;;;4981071;28;20037;-72
2022/11/30 06:17:37;;;;;;;62.17;31.52;;;;;;;;;;4984842;28;20084;-72
2022/11/30 06:20:04;;;;;;;57.22;30.58;;;;;;;;;;4979912;28;20034;-70
2022/11/30 06:22:29;;;;;;;57.22;29.85;;;;;;;;;;4984446;28;20045;-71
2022/11/30 06:24:55;;;;;;;60.72;31.35;;;;;;;;;;4982487;28;20882;-70
2022/11/30 06:27:22;;;;;;;60.60;30.55;;;;;;;;;;4985019;28;20042;-70
2022/11/30 06:29:48;;;;;;;55.33;29.50;;;;;;;;;;4985538;28;20124;-71
2022/11/30 06:32:13;;;;;;;58.40;31.23;;;;;;;;;;4987331;28;20039;-70
2022/11/30 06:34:40;;;;;;;63.90;32.08;;;;;;;;;;4982113;28;20573;-70
2022/11/30 06:37:08;;;;;;;60.15;31.25;;;;;;;;;;4982587;28;21000;-69
2022/11/30 06:39:34;;;;;;;61.92;31.67;;;;;;;;;;5015629;28;20041;-70
2022/11/30 06:41:59;;;;;;;62.35;32.42;;;;;;;;;;4985268;28;20122;-69
2022/11/30 06:44:26;;;;;;;61.45;30.65;;;;;;;;;;5000578;28;20045;-69
2022/11/30 06:46:51;;;;;;;60.72;31.42;;;;;;;;;;4986437;28;20048;-69
2022/11/30 06:49:17;;;;;;;61.63;30.75;;;;;;;;;;4983747;28;20037;-69
2022/11/30 06:51:42;;;;;;;57.25;30.80;;;;;;;;;;4967882;28;20084;-69
2022/11/30 06:54:08;;;;;;;67.80;31.15;;;;;;;;;;4980016;28;20053;-69
2022/11/30 06:56:33;;;;;;;62.53;32.30;;;;;;;;;;4988954;28;20029;-69
2022/11/30 06:58:59;;;;;;;67.13;31.15;;;;;;;;;;4998149;28;20049;-69
2022/11/30 07:01:24;;;;;;;64.35;30.98;;;;;;;;;;4979760;28;20887;-69
2022/11/30 07:03:51;;;;;;;70.95;33.50;;;;;;;;;;4983373;28;20041;-68
2022/11/30 07:06:17;;;;;;;64.53;30.65;;;;;;;;;;4978216;28;20096;-69
2022/11/30 07:08:42;;;;;;;68.57;31.92;;;;;;;;;;4976073;28;20178;-68
2022/11/30 07:11:09;;;;;;;68.43;31.88;;;;;;;;;;4983226;28;20486;-69
2022/11/30 07:13:35;;;;;;;69.75;31.75;;;;;;;;;;4983473;28;21080;-69
2022/11/30 07:16:10;;;;;;;59.38;31.25;;;;;;;;;;4982383;28;20065;-69
2022/11/30 07:18:38;;;;;;;61.95;30.77;;;;;;;;;;4986598;28;20041;-69
2022/11/30 07:21:05;;;;;;;63.22;31.27;;;;;;;;;;4982034;28;20045;-70
2022/11/30 07:26:15;;;;;;;66.00;34.70;;;;;;;;;;4983306;28;20049;-70
2022/11/30 07:28:41;;;;;;;68.30;36.25;;;;;;;;;;4983773;28;20731;-70
2022/11/30 07:31:19;;;;;;;69.95;35.90;;;;;;;;;;5002840;28;20057;-70
2022/11/30 07:33:45;;;;;;;71.03;36.28;;;;;;;;;;4985345;28;20952;-69
2022/11/30 07:36:11;;;;;;;78.70;34.53;;;;;;;;;;4980568;28;20041;-69
2022/11/30 07:38:36;;;;;;;62.28;32.70;;;;;;;;;;4984941;28;20549;-69
2022/11/30 07:41:03;;;;;;;66.40;35.42;;;;;;;;;;4982765;28;20112;-69
2022/11/30 07:43:29;;;;;;;69.32;32.85;;;;;;;;;;4983311;28;20034;-69
2022/11/30 07:45:55;;;;;;;73.95;32.42;;;;;;;;;;4983421;28;20048;-68
2022/11/30 07:48:20;;;;;;;70.70;33.17;;;;;;;;;;4982747;28;20037;-68
2022/11/30 07:50:46;;;;;;;89.53;33.58;;;;;;;;;;4980671;28;20557;-68
2022/11/30 07:53:12;;;;;;;78.63;34.72;;;;;;;;;;4981217;28;20502;-68
2022/11/30 07:55:37;;;;;;;61.03;32.03;;;;;;;;;;4980127;28;20049;-71
2022/11/30 07:58:02;;;;;;;56.10;29.35;;;;;;;;;;5009903;28;20451;-70
2022/11/30 08:00:28;;;;;;;48.15;26.35;;;;;;;;;;4979568;28;20041;-69
2022/11/30 08:02:53;;;;;;;48.88;25.92;;;;;;;;;;4978641;28;20179;-69
2022/11/30 08:05:19;;;;;;;53.78;27.13;;;;;;;;;;4979124;28;20218;-69
2022/11/30 08:07:49;;;;;;;56.85;27.77;;;;;;;;;;4980244;28;20150;-69
2022/11/30 08:10:14;;;;;;;62.35;27.00;;;;;;;;;;4989868;28;20470;-69
2022/11/30 08:12:39;;;;;;;57.42;29.08;;;;;;;;;;4999111;28;20051;-70
2022/11/30 08:15:05;;;;;;;57.00;28.92;;;;;;;;;;4979558;28;20046;-70
2022/11/30 08:17:31;;;;;;;53.63;27.63;;;;;;;;;;4983437;28;20149;-70
2022/11/30 08:19:57;;;;;;;52.78;27.85;;;;;;;;;;4981390;28;20041;-70
2022/11/30 08:22:22;;;;;;;57.83;30.70;;;;;;;;;;5011528;28;20045;-70
2022/11/30 08:24:47;;;;;;;57.85;29.00;;;;;;;;;;4978241;28;20045;-70
2022/11/30 08:27:13;;;;;;;54.97;28.75;;;;;;;;;;4977825;28;20029;-69
2022/11/30 08:29:38;;;;;;;58.33;29.67;;;;;;;;;;4978948;28;20034;-69
2022/11/30 08:32:04;;;;;;;57.58;28.90;;;;;;;;;;4982855;28;20033;-68
2022/11/30 08:34:29;;;;;;;60.42;28.80;;;;;;;;;;4996101;28;20081;-68
2022/11/30 08:36:54;;;;;;;55.35;27.75;;;;;;;;;;4980949;28;20124;-69
2022/11/30 08:39:20;;;;;;;57.45;28.98;;;;;;;;;;4974795;28;20037;-69
2022/11/30 08:41:46;;;;;;;51.40;27.50;;;;;;;;;;4977633;28;20121;-69
2022/11/30 08:44:12;;;;;;;53.63;29.27;;;;;;;;;;4974568;28;20060;-69
2022/11/30 08:46:39;;;;;;;69.22;30.27;;;;;;;;;;5005303;28;20104;-70
2022/11/30 08:49:04;;;;;;;63.58;33.33;;;;;;;;;;4983242;28;20037;-70
2022/11/30 08:51:30;;;;;;;62.33;31.58;;;;;;;;;;4980216;28;20132;-70
2022/11/30 08:53:56;;;;;;;61.47;31.17;;;;;;;;;;4972204;28;20065;-70
2022/11/30 08:56:22;;;;;;;63.88;32.70;;;;;;;;;;4978854;28;20033;-69
2022/11/30 08:58:48;;;;;;;60.30;32.10;;;;;;;;;;4977578;28;20858;-70
2022/11/30 09:01:19;;;;;;;63.03;31.70;;;;;;;;;;4980554;28;20042;-70
2022/11/30 09:03:45;;;;;;;59.20;30.55;;;;;;;;;;4980482;28;20038;-70
2022/11/30 09:06:12;;;;;;;64.93;32.00;;;;;;;;;;4981883;28;20033;-70
2022/11/30 09:08:39;;;;;;;61.50;32.45;;;;;;;;;;4979834;28;20033;-70
2022/11/30 09:11:08;;;;;;;60.47;30.42;;;;;;;;;;4979162;28;20503;-70
2022/11/30 09:13:34;;;;;;;55.55;30.63;;;;;;;;;;4978672;28;20088;-70
2022/11/30 09:15:59;;;;;;;54.25;31.27;;;;;;;;;;4981588;28;20536;-70
2022/11/30 09:18:24;;;;;;;62.63;32.92;;;;;;;;;;4978350;28;20255;-69
2022/11/30 09:20:50;;;;;;;58.03;30.80;;;;;;;;;;4973821;28;20083;-70
2022/11/30 09:23:15;;;;;;;50.45;27.83;;;;;;;;;;4995106;28;20839;-69
2022/11/30 09:25:43;;;;;;;51.90;27.33;;;;;;;;;;4982046;28;20336;-70
2022/11/30 09:28:08;;;;;;;49.90;28.48;;;;;;;;;;4995806;28;25535;-70
2022/11/30 09:30:34;;;;;;;52.15;27.83;;;;;;;;;;4981039;28;20231;-70
2022/11/30 09:33:00;;;;;;;54.55;29.85;;;;;;;;;;4981945;28;20029;-70
2022/11/30 09:35:25;;;;;;;57.22;29.23;;;;;;;;;;4981952;28;20076;-70
2022/11/30 09:37:51;;;;;;;48.75;28.17;;;;;;;;;;4983359;28;20037;-70
2022/11/30 09:40:18;;;;;;;59.08;30.98;;;;;;;;;;4982892;28;20270;-70
2022/11/30 09:42:50;;;;;;;48.33;28.23;;;;;;;;;;4981888;28;20079;-70
2022/11/30 09:45:18;;;;;;;46.33;27.08;;;;;;;;;;4982209;28;20573;-69
2022/11/30 09:47:58;;;;;;;44.65;26.02;;;;;;;;;;4981588;28;20736;-70
2022/11/30 09:50:30;;;;;;;43.97;25.33;;;;;;;;;;4985174;28;20146;-70
2022/11/30 09:52:59;;;;;;;49.40;26.30;;;;;;;;;;5000913;28;20032;-70
2022/11/30 09:55:38;;;;;;;46.97;26.50;;;;;;;;;;5000200;28;20681;-70
2022/11/30 09:58:08;;;;;;;48.58;26.23;;;;;;;;;;4985541;28;20037;-70
2022/11/30 10:00:35;;;;;;;45.33;25.90;;;;;;;;;;4982405;28;20820;-70
2022/11/30 10:03:02;;;;;;;44.85;24.52;;;;;;;;;;4983193;28;20308;-70
2022/11/30 10:05:36;;;;;;;42.17;23.55;;;;;;;;;;4983119;28;20520;-70
2022/11/30 10:08:05;;;;;;;46.80;25.75;;;;;;;;;;4982657;28;20040;-70
2022/11/30 10:10:42;;;;;;;43.10;23.48;;;;;;;;;;4982513;28;20426;-70
2022/11/30 10:13:17;;;;;;;43.70;24.98;;;;;;;;;;5003481;28;20034;-70
2022/11/30 10:15:48;;;;;;;37.13;21.40;;;;;;;;;;5001571;28;20518;-70
2022/11/30 10:18:24;;;;;;;44.60;24.30;;;;;;;;;;5003286;28;20049;-70
2022/11/30 10:20:49;;;;;;;38.03;22.92;;;;;;;;;;5005678;28;20130;-71
2022/11/30 10:23:22;;;;;;;38.22;23.10;;;;;;;;;;5003913;28;20639;-71
2022/11/30 10:25:57;;;;;;;46.05;25.33;;;;;;;;;;5031296;28;21664;-71
2022/11/30 10:28:29;;;;;;;41.00;24.88;;;;;;;;;;5003302;28;20116;-71
2022/11/30 10:30:54;;;;;;;;;;;;;;;;;;5003275;28;20056;-71
2022/11/30 10:33:23;;;;;;;42.80;25.80;;;;;;;;;;5003497;28;19918;-71
2022/11/30 10:35:50;;;;;;;43.38;25.10;;;;;;;;;;4992070;28;20057;-71
2022/11/30 10:38:25;;;;;;;33.35;21.90;;;;;;;;;;4982210;28;20058;-71
2022/11/30 10:41:03;;;;;;;32.25;22.30;;;;;;;;;;4982775;28;20042;-71
2022/11/30 10:43:32;;;;;;;33.33;21.95;;;;;;;;;;4981647;28;20428;-70
2022/11/30 10:45:58;;;;;;;31.27;20.95;;;;;;;;;;4980926;28;20057;-70
2022/11/30 10:48:29;;;;;;;37.08;23.77;;;;;;;;;;4981996;28;20557;-71
2022/11/30 10:50:58;;;;;;;35.65;23.05;;;;;;;;;;4981306;28;20041;-72
2022/11/30 10:53:23;;;;;;;38.00;24.13;;;;;;;;;;5011715;28;20345;-71
2022/11/30 10:55:57;;;;;;;36.85;23.25;;;;;;;;;;4980328;28;20038;-71
2022/11/30 10:58:38;;;;;;;34.95;22.70;;;;;;;;;;4980949;28;20034;-71
2022/11/30 11:01:05;;;;;;;34.80;21.45;;;;;;;;;;4980938;28;20642;-71
2022/11/30 11:03:31;;;;;;;31.25;20.90;;;;;;;;;;4981120;28;20576;-70
2022/11/30 11:06:09;;;;;;;32.25;21.77;;;;;;;;;;4979575;28;20501;-70
2022/11/30 11:08:35;;;;;;;34.05;21.75;;;;;;;;;;5008838;28;20115;-70
2022/11/30 11:11:00;;;;;;;30.45;21.48;;;;;;;;;;4994308;28;20036;-70
2022/11/30 11:13:41;;;;;;;35.10;21.27;;;;;;;;;;4985216;28;20100;-71
2022/11/30 11:16:08;;;;;;;35.08;22.30;;;;;;;;;;4980198;28;20115;-71
2022/11/30 11:18:34;;;;;;;34.35;22.67;;;;;;;;;;4982895;28;20612;-70
2022/11/30 11:21:02;;;;;;;35.95;22.58;;;;;;;;;;4995948;28;20032;-70
2022/11/30 11:23:27;;;;;;;33.90;21.67;;;;;;;;;;4989820;28;20037;-70
2022/11/30 11:25:56;;;;;;;32.85;19.25;;;;;;;;;;4981478;28;20091;-70
2022/11/30 11:28:23;;;;;;;32.55;20.77;;;;;;;;;;4980062;28;20835;-70
2022/11/30 11:30:50;;;;;;;32.53;19.45;;;;;;;;;;4976354;28;20033;-70
2022/11/30 11:33:21;;;;;;;33.10;21.40;;;;;;;;;;4983761;28;20041;-70
2022/11/30 11:35:49;;;;;;;45.28;21.85;;;;;;;;;;4981911;28;20042;-71
2022/11/30 11:38:18;;;;;;;42.28;20.27;;;;;;;;;;4989649;28;20044;-70
2022/11/30 11:41:04;;;;;;;39.80;22.42;;;;;;;;;;4980706;28;20034;-70
2022/11/30 11:43:32;;;;;;;39.45;20.00;;;;;;;;;;4981430;28;20485;-71
2022/11/30 11:46:12;;;;;;;32.17;19.02;;;;;;;;;;4977712;28;20065;-70
2022/11/30 11:48:40;;;;;;;33.83;19.33;;;;;;;;;;4978697;28;20037;-70
2022/11/30 11:51:06;;;;;;;34.10;19.80;;;;;;;;;;4980971;28;20680;-72
2022/11/30 11:53:35;;;;;;;42.50;20.58;;;;;;;;;;4978551;28;20679;-71
2022/11/30 11:56:08;;;;;;;31.17;15.63;;;;;;;;;;4980511;28;20246;-71
2022/11/30 11:58:39;;;;;;;33.63;18.52;;;;;;;;;;4997704;28;20502;-72
2022/11/30 12:01:07;;;;;;;32.50;18.73;;;;;;;;;;4999597;28;20269;-71
2022/11/30 12:03:53;;;;;;;30.60;18.58;;;;;;;;;;5001475;28;20551;-71
2022/11/30 12:06:19;;;;;;;28.30;16.85;;;;;;;;;;5013247;28;20114;-71
2022/11/30 12:08:56;;;;;;;27.88;17.58;;;;;;;;;;4995706;28;20147;-71
2022/11/30 12:11:42;;;;;;;33.30;19.58;;;;;;;;;;4995454;28;20420;-71
2022/11/30 12:14:13;;;;;;;32.63;19.80;;;;;;;;;;4997776;28;20036;-71
2022/11/30 12:16:57;;;;;;;29.52;18.77;;;;;;;;;;4987889;28;20441;-70
2022/11/30 12:19:25;;;;;;;31.92;19.60;;;;;;;;;;4999655;28;20667;-70
2022/11/30 12:22:02;;;;;;;31.15;19.08;;;;;;;;;;4988186;28;20060;-72
2022/11/30 12:24:27;;;;;;;31.73;19.13;;;;;;;;;;4996208;28;20034;-71
2022/11/30 12:26:57;;;;;;;28.42;19.23;;;;;;;;;;4985080;28;20156;-71
2022/11/30 12:29:27;;;;;;;30.23;18.58;;;;;;;;;;4979015;28;20271;-72
2022/11/30 12:32:00;;;;;;;32.70;20.08;;;;;;;;;;4996243;28;20033;-71
2022/11/30 12:34:25;;;;;;;37.85;20.35;;;;;;;;;;4998188;28;20033;-71
2022/11/30 12:36:51;;;;;;;31.17;20.10;;;;;;;;;;4994566;28;20076;-71
2022/11/30 12:39:31;;;;;;;34.67;20.60;;;;;;;;;;4970127;28;20045;-69
2022/11/30 12:42:02;;;;;;;36.55;21.75;;;;;;;;;;4977381;28;20042;-71
2022/11/30 12:44:49;;;;;;;36.72;23.08;;;;;;;;;;4996668;28;20513;-71
2022/11/30 12:47:34;;;;;;;36.38;22.33;;;;;;;;;;4977718;28;20649;-70
2022/11/30 12:50:21;;;;;;;38.30;23.10;;;;;;;;;;4962062;28;20033;-71
2022/11/30 12:53:07;;;;;;;39.50;22.48;;;;;;;;;;4991912;28;20037;-70
2022/11/30 12:55:35;;;;;;;36.42;21.85;;;;;;;;;;4999121;28;20392;-70
2022/11/30 12:58:01;;;;;;;34.25;21.60;;;;;;;;;;4997975;28;20044;-70
2022/11/30 13:00:33;;;;;;;34.75;20.92;;;;;;;;;;4988335;28;20732;-70
2022/11/30 13:03:01;;;;;;;34.22;22.38;;;;;;;;;;4993487;28;20402;-70
2022/11/30 13:05:53;;;;;;;35.25;24.05;;;;;;;;;;4997973;28;20040;-70
2022/11/30 13:08:24;;;;;;;40.83;26.23;;;;;;;;;;4994978;28;20071;-70
2022/11/30 13:10:54;;;;;;;44.10;25.92;;;;;;;;;;4999702;28;20044;-70
2022/11/30 13:13:24;;;;;;;45.50;25.55;;;;;;;;;;4997103;28;20044;-70
2022/11/30 13:15:49;;;;;;;54.38;27.27;;;;;;;;;;4998451;28;20204;-69
2022/11/30 13:18:18;;;;;;;41.78;26.52;;;;;;;;;;4986772;28;20042;-70
2022/11/30 13:21:03;;;;;;;47.45;26.40;;;;;;;;;;4979294;28;20540;-70
2022/11/30 13:23:35;;;;;;;43.38;26.88;;;;;;;;;;4979989;28;20538;-70
2022/11/30 13:26:13;;;;;;;45.72;26.17;;;;;;;;;;4975333;28;20085;-70
2022/11/30 13:28:41;;;;;;;38.67;25.08;;;;;;;;;;4978330;28;20405;-70
2022/11/30 13:31:07;;;;;;;42.35;25.02;;;;;;;;;;4979686;28;20034;-70
2022/11/30 13:33:44;;;;;;;43.85;26.70;;;;;;;;;;4981420;28;20120;-70
2022/11/30 13:36:29;;;;;;;40.50;26.35;;;;;;;;;;4977865;28;20119;-68
2022/11/30 13:39:17;;;;;;;45.22;26.25;;;;;;;;;;4981271;28;20034;-70
2022/11/30 13:41:44;;;;;;;43.40;26.85;;;;;;;;;;4978182;28;20041;-70
2022/11/30 13:44:29;;;;;;;49.97;28.05;;;;;;;;;;4981316;28;20262;-70
2022/11/30 13:46:54;;;;;;;42.95;25.77;;;;;;;;;;4979511;28;20072;-70
2022/11/30 13:49:27;;;;;;;45.20;27.27;;;;;;;;;;4977595;28;20033;-71
2022/11/30 13:51:52;;;;;;;42.88;26.23;;;;;;;;;;4988319;28;20038;-67
2022/11/30 13:54:36;;;;;;;51.95;28.85;;;;;;;;;;4980525;28;20508;-69
2022/11/30 13:57:02;;;;;;;43.65;27.55;;;;;;;;;;5009656;28;20057;-70
2022/11/30 13:59:27;;;;;;;40.92;27.80;;;;;;;;;;4978273;28;20639;-70
2022/11/30 14:02:13;;;;;;;56.05;29.00;;;;;;;;;;4979625;28;20204;-70
2022/11/30 14:04:45;;;;;;;42.60;28.30;;;;;;;;;;4979634;28;20726;-70
2022/11/30 14:07:29;;;;;;;41.60;26.45;;;;;;;;;;4979308;28;20029;-69
2022/11/30 14:09:56;;;;;;;48.08;29.70;;;;;;;;;;5000184;28;20132;-69
2022/11/30 14:12:35;;;;;;;54.67;29.63;;;;;;;;;;5002621;28;20154;-69
2022/11/30 14:15:02;;;;;;;51.47;27.95;;;;;;;;;;5033975;28;20029;-67
2022/11/30 14:17:31;;;;;;;45.60;29.05;;;;;;;;;;5002418;28;21096;-66
2022/11/30 14:19:58;;;;;;;52.42;30.85;;;;;;;;;;5003578;28;20489;-67
2022/11/30 14:22:25;;;;;;;52.55;30.75;;;;;;;;;;4999081;28;20132;-67
2022/11/30 14:24:51;;;;;;;51.97;31.17;;;;;;;;;;4981388;28;20172;-65
2022/11/30 14:27:17;;;;;;;47.45;30.58;;;;;;;;;;4982678;28;20503;-66
2022/11/30 14:29:43;;;;;;;49.00;31.60;;;;;;;;;;4982835;28;20749;-66